ESPA/LLA METAR and TAF weather

Enter ICAO airport designator
Station Type Date Time Source
ESPA METAR 2022/10/01 07:20 UTC NOAA

ESPA 010720Z 13006KT 9999 FEW023 OVC058 06/05 Q1008


Station Type Date Time Source
ESPA Decoded METAR 2022/10/01 07:20 UTC NOAA

Lulea / Kallax, Sweden (ESPA) 65-33N 022-08E 34M
Oct 01, 2022 - 03:20 AM EDT / 2022.10.01 0720 UTC
Wind: from the SE (130 degrees) at 7 MPH (6 KT):0
Visibility: greater than 7 mile(s):0
Sky conditions: overcast
Temperature: 42 F (6 C)
Dew Point: 41 F (5 C)
Relative Humidity: 93%
Pressure (altimeter): 29.77 in. Hg (1008 hPa)
ob: ESPA 010720Z 13006KT 9999 FEW023 OVC058 06/05 Q1008
cycle: 7

Station Type Date Time Source
ESPA TAF 2019/02/04 06:27 UTC NOAA

TAF TAF ESPA 040820Z 0406/0418 01010KT 2000 SN VV020
TEMPO 0409/0414 1000 +SN DRSN VV009
BECMG 0414/0416 32010KT 5000 -SN VV030
RMK MIL

Example: see airport list